sensor_id;sensor_type;location;lat;lon;timestamp;pressure;altitude;pressure_sealevel;temperature;humidity
6395;BME280;3230;42.588;23.358;2023-12-07T00:01:56;90619.50;;;3.29;100.00
6395;BME280;3230;42.588;23.358;2023-12-07T00:04:21;90611.88;;;3.17;100.00
6395;BME280;3230;42.588;23.358;2023-12-07T00:06:47;90622.31;;;3.05;100.00
6395;BME280;3230;42.588;23.358;2023-12-07T00:09:13;90628.50;;;3.04;100.00
6395;BME280;3230;42.588;23.358;2023-12-07T00:11:38;90624.44;;;3.08;100.00
6395;BME280;3230;42.588;23.358;2023-12-07T00:14:04;90619.78;;;3.10;100.00
6395;BME280;3230;42.588;23.358;2023-12-07T00:16:29;90636.81;;;3.23;100.00
6395;BME280;3230;42.588;23.358;2023-12-07T00:18:54;90623.19;;;3.33;100.00
6395;BME280;3230;42.588;23.358;2023-12-07T00:21:20;90627.28;;;3.29;100.00
6395;BME280;3230;42.588;23.358;2023-12-07T00:23:45;90628.22;;;3.23;100.00
6395;BME280;3230;42.588;23.358;2023-12-07T00:26:11;90620.91;;;3.14;100.00
6395;BME280;3230;42.588;23.358;2023-12-07T00:28:36;90628.66;;;3.14;100.00
6395;BME280;3230;42.588;23.358;2023-12-07T00:31:02;90627.50;;;3.05;100.00
6395;BME280;3230;42.588;23.358;2023-12-07T00:33:27;90645.22;;;3.13;100.00
6395;BME280;3230;42.588;23.358;2023-12-07T00:35:52;90635.13;;;2.95;100.00
6395;BME280;3230;42.588;23.358;2023-12-07T00:38:18;90639.97;;;3.08;100.00
6395;BME280;3230;42.588;23.358;2023-12-07T00:40:44;90630.22;;;2.98;100.00
6395;BME280;3230;42.588;23.358;2023-12-07T00:43:09;90627.19;;;3.01;100.00
6395;BME280;3230;42.588;23.358;2023-12-07T00:45:34;90631.34;;;3.02;100.00
6395;BME280;3230;42.588;23.358;2023-12-07T00:48:00;90636.13;;;3.11;100.00
6395;BME280;3230;42.588;23.358;2023-12-07T00:50:25;90642.38;;;3.15;100.00
6395;BME280;3230;42.588;23.358;2023-12-07T00:52:51;90630.84;;;3.06;100.00
6395;BME280;3230;42.588;23.358;2023-12-07T00:55:16;90637.97;;;3.15;100.00
6395;BME280;3230;42.588;23.358;2023-12-07T00:57:42;90626.84;;;3.15;100.00
6395;BME280;3230;42.588;23.358;2023-12-07T01:00:07;90621.06;;;3.08;100.00
6395;BME280;3230;42.588;23.358;2023-12-07T01:02:33;90630.22;;;2.98;100.00
6395;BME280;3230;42.588;23.358;2023-12-07T01:04:58;90634.69;;;3.03;100.00
6395;BME280;3230;42.588;23.358;2023-12-07T01:07:24;90634.78;;;3.08;100.00
6395;BME280;3230;42.588;23.358;2023-12-07T01:09:49;90631.72;;;3.11;100.00
6395;BME280;3230;42.588;23.358;2023-12-07T01:12:15;90631.91;;;3.04;100.00
6395;BME280;3230;42.588;23.358;2023-12-07T01:14:40;90612.34;;;2.97;100.00
6395;BME280;3230;42.588;23.358;2023-12-07T01:17:06;90636.00;;;3.23;100.00
6395;BME280;3230;42.588;23.358;2023-12-07T01:19:31;90622.31;;;3.05;100.00
6395;BME280;3230;42.588;23.358;2023-12-07T01:21:57;90619.00;;;3.10;100.00
6395;BME280;3230;42.588;23.358;2023-12-07T01:24:22;90614.94;;;2.97;100.00
6395;BME280;3230;42.588;23.358;2023-12-07T01:26:47;90629.31;;;3.04;100.00
6395;BME280;3230;42.588;23.358;2023-12-07T01:29:13;90604.97;;;2.88;100.00
6395;BME280;3230;42.588;23.358;2023-12-07T01:31:45;90615.50;;;2.99;100.00
6395;BME280;3230;42.588;23.358;2023-12-07T01:34:10;90610.88;;;3.01;100.00
6395;BME280;3230;42.588;23.358;2023-12-07T01:36:36;90601.28;;;3.01;100.00
6395;BME280;3230;42.588;23.358;2023-12-07T01:39:01;90601.84;;;3.03;100.00
6395;BME280;3230;42.588;23.358;2023-12-07T01:41:27;90600.34;;;3.08;100.00
6395;BME280;3230;42.588;23.358;2023-12-07T01:43:52;90603.94;;;3.07;100.00
6395;BME280;3230;42.588;23.358;2023-12-07T01:46:18;90601.25;;;3.18;100.00
6395;BME280;3230;42.588;23.358;2023-12-07T01:48:44;90587.59;;;3.01;100.00
6395;BME280;3230;42.588;23.358;2023-12-07T01:51:10;90607.34;;;3.07;100.00
6395;BME280;3230;42.588;23.358;2023-12-07T01:53:38;90596.50;;;3.10;100.00
6395;BME280;3230;42.588;23.358;2023-12-07T01:56:04;90606.28;;;3.25;100.00
6395;BME280;3230;42.588;23.358;2023-12-07T01:58:30;90608.25;;;3.18;100.00
6395;BME280;3230;42.588;23.358;2023-12-07T02:00:56;90609.28;;;3.17;100.00
6395;BME280;3230;42.588;23.358;2023-12-07T02:03:22;90605.34;;;3.14;100.00
6395;BME280;3230;42.588;23.358;2023-12-07T02:05:48;90588.03;;;2.98;100.00
6395;BME280;3230;42.588;23.358;2023-12-07T02:08:14;90621.91;;;3.13;100.00
6395;BME280;3230;42.588;23.358;2023-12-07T02:10:40;90611.06;;;3.16;100.00
6395;BME280;3230;42.588;23.358;2023-12-07T02:13:06;90607.47;;;3.17;100.00
6395;BME280;3230;42.588;23.358;2023-12-07T02:15:32;90604.75;;;3.07;100.00
6395;BME280;3230;42.588;23.358;2023-12-07T02:21:06;90610.84;;;3.18;100.00
6395;BME280;3230;42.588;23.358;2023-12-07T02:23:37;90602.72;;;3.31;100.00
6395;BME280;3230;42.588;23.358;2023-12-07T02:26:06;90598.88;;;3.34;100.00
6395;BME280;3230;42.588;23.358;2023-12-07T02:28:33;90596.81;;;3.36;100.00
6395;BME280;3230;42.588;23.358;2023-12-07T02:30:59;90593.56;;;3.24;100.00
6395;BME280;3230;42.588;23.358;2023-12-07T02:33:24;90603.78;;;3.13;100.00
6395;BME280;3230;42.588;23.358;2023-12-07T02:35:50;90607.00;;;3.20;100.00
6395;BME280;3230;42.588;23.358;2023-12-07T02:38:16;90586.28;;;3.20;100.00
6395;BME280;3230;42.588;23.358;2023-12-07T02:40:44;90598.06;;;3.11;100.00
6395;BME280;3230;42.588;23.358;2023-12-07T02:43:11;90597.03;;;3.12;100.00
6395;BME280;3230;42.588;23.358;2023-12-07T02:45:38;90592.81;;;3.06;100.00
6395;BME280;3230;42.588;23.358;2023-12-07T02:48:04;90591.38;;;3.15;100.00
6395;BME280;3230;42.588;23.358;2023-12-07T02:50:29;90602.69;;;3.09;100.00
6395;BME280;3230;42.588;23.358;2023-12-07T02:52:55;90593.41;;;3.30;100.00
6395;BME280;3230;42.588;23.358;2023-12-07T02:55:21;90597.63;;;3.36;100.00
6395;BME280;3230;42.588;23.358;2023-12-07T02:57:47;90594.66;;;3.28;100.00
6395;BME280;3230;42.588;23.358;2023-12-07T03:00:13;90592.59;;;3.30;100.00
6395;BME280;3230;42.588;23.358;2023-12-07T03:02:40;90598.44;;;3.42;100.00
6395;BME280;3230;42.588;23.358;2023-12-07T03:05:06;90588.31;;;3.18;100.00
6395;BME280;3230;42.588;23.358;2023-12-07T03:07:33;90591.91;;;3.17;100.00
6395;BME280;3230;42.588;23.358;2023-12-07T03:09:58;90598.56;;;3.30;100.00
6395;BME280;3230;42.588;23.358;2023-12-07T03:12:24;90583.84;;;3.14;100.00
6395;BME280;3230;42.588;23.358;2023-12-07T03:14:49;90603.69;;;3.25;100.00
6395;BME280;3230;42.588;23.358;2023-12-07T03:17:15;90598.56;;;3.30;100.00
6395;BME280;3230;42.588;23.358;2023-12-07T03:19:41;90587.34;;;3.25;100.00
6395;BME280;3230;42.588;23.358;2023-12-07T03:22:07;90608.75;;;3.37;100.00
6395;BME280;3230;42.588;23.358;2023-12-07T03:24:36;90603.56;;;3.37;100.00
6395;BME280;3230;42.588;23.358;2023-12-07T03:27:01;90605.63;;;3.35;100.00
6395;BME280;3230;42.588;23.358;2023-12-07T03:29:27;90605.06;;;3.33;100.00
6395;BME280;3230;42.588;23.358;2023-12-07T03:31:52;90614.94;;;3.36;100.00
6395;BME280;3230;42.588;23.358;2023-12-07T03:34:18;90608.75;;;3.37;100.00
6395;BME280;3230;42.588;23.358;2023-12-07T03:36:47;90615.25;;;3.40;100.00
6395;BME280;3230;42.588;23.358;2023-12-07T03:39:16;90618.63;;;3.40;100.00
6395;BME280;3230;42.588;23.358;2023-12-07T03:41:47;90611.94;;;3.44;100.00
6395;BME280;3230;42.588;23.358;2023-12-07T03:44:19;90623.16;;;3.50;100.00
6395;BME280;3230;42.588;23.358;2023-12-07T03:46:45;90614.22;;;3.41;100.00
6395;BME280;3230;42.588;23.358;2023-12-07T03:49:10;90604.34;;;3.38;100.00
6395;BME280;3230;42.588;23.358;2023-12-07T03:51:37;90610.16;;;3.45;100.00
6395;BME280;3230;42.588;23.358;2023-12-07T03:54:03;90610.16;;;3.45;100.00
6395;BME280;3230;42.588;23.358;2023-12-07T03:56:30;90604.13;;;3.39;100.00
6395;BME280;3230;42.588;23.358;2023-12-07T03:58:56;90607.16;;;3.36;100.00
6395;BME280;3230;42.588;23.358;2023-12-07T04:01:26;90607.91;;;3.54;100.00
6395;BME280;3230;42.588;23.358;2023-12-07T04:03:53;90594.22;;;3.36;100.00
6395;BME280;3230;42.588;23.358;2023-12-07T04:06:20;90590.66;;;3.42;100.00
6395;BME280;3230;42.588;23.358;2023-12-07T04:08:46;90604.56;;;3.36;100.00
6395;BME280;3230;42.588;23.358;2023-12-07T04:11:12;90601.69;;;3.32;100.00
6395;BME280;3230;42.588;23.358;2023-12-07T04:13:37;90608.28;;;3.40;100.00
6395;BME280;3230;42.588;23.358;2023-12-07T04:16:03;90609.34;;;3.44;100.00
6395;BME280;3230;42.588;23.358;2023-12-07T04:18:29;90601.41;;;3.12;100.00
6395;BME280;3230;42.588;23.358;2023-12-07T04:20:54;90624.09;;;3.22;100.00
6395;BME280;3230;42.588;23.358;2023-12-07T04:23:20;90608.75;;;2.98;100.00
6395;BME280;3230;42.588;23.358;2023-12-07T04:25:45;90619.84;;;3.15;100.00
6395;BME280;3230;42.588;23.358;2023-12-07T04:28:10;90616.72;;;3.13;100.00
6395;BME280;3230;42.588;23.358;2023-12-07T04:30:36;90628.09;;;3.12;100.00
6395;BME280;3230;42.588;23.358;2023-12-07T04:33:01;90641.19;;;3.06;100.00
6395;BME280;3230;42.588;23.358;2023-12-07T04:35:26;90623.47;;;3.14;100.00
6395;BME280;3230;42.588;23.358;2023-12-07T04:37:54;90627.94;;;3.02;100.00
6395;BME280;3230;42.588;23.358;2023-12-07T04:40:19;90635.63;;;3.14;100.00
6395;BME280;3230;42.588;23.358;2023-12-07T04:42:44;90642.56;;;3.08;100.00
6395;BME280;3230;42.588;23.358;2023-12-07T04:45:10;90627.94;;;3.02;100.00
6395;BME280;3230;42.588;23.358;2023-12-07T04:47:35;90639.47;;;3.11;100.00
6395;BME280;3230;42.588;23.358;2023-12-07T04:50:01;90627.13;;;2.96;100.00
6395;BME280;3230;42.588;23.358;2023-12-07T05:10:14;90663.63;;;3.34;100.00
6395;BME280;3230;42.588;23.358;2023-12-07T05:12:46;90663.69;;;3.39;100.00
6395;BME280;3230;42.588;23.358;2023-12-07T05:15:11;90654.66;;;3.42;100.00
6395;BME280;3230;42.588;23.358;2023-12-07T05:17:37;90660.47;;;3.32;100.00
6395;BME280;3230;42.588;23.358;2023-12-07T05:20:03;90667.78;;;3.35;100.00
6395;BME280;3230;42.588;23.358;2023-12-07T05:22:30;90668.59;;;3.18;100.00
6395;BME280;3230;42.588;23.358;2023-12-07T05:24:55;90674.13;;;3.27;100.00
6395;BME280;3230;42.588;23.358;2023-12-07T05:27:21;90664.97;;;3.19;100.00
6395;BME280;3230;42.588;23.358;2023-12-07T05:29:46;90677.91;;;3.19;100.00
6395;BME280;3230;42.588;23.358;2023-12-07T05:32:11;90671.16;;;3.35;100.00
6395;BME280;3230;42.588;23.358;2023-12-07T05:34:37;90682.84;;;3.21;100.00
6395;BME280;3230;42.588;23.358;2023-12-07T05:37:03;90690.03;;;3.36;100.00
6395;BME280;3230;42.588;23.358;2023-12-07T05:39:29;90693.44;;;3.19;100.00
6395;BME280;3230;42.588;23.358;2023-12-07T05:41:55;90687.56;;;3.41;100.00
6395;BME280;3230;42.588;23.358;2023-12-07T05:44:20;90687.06;;;3.44;100.00
6395;BME280;3230;42.588;23.358;2023-12-07T05:46:48;90683.50;;;3.50;100.00
6395;BME280;3230;42.588;23.358;2023-12-07T05:49:13;90684.00;;;3.47;100.00
6395;BME280;3230;42.588;23.358;2023-12-07T05:51:39;90679.03;;;3.46;100.00
6395;BME280;3230;42.588;23.358;2023-12-07T05:54:04;90680.72;;;3.35;100.00
6395;BME280;3230;42.588;23.358;2023-12-07T05:56:31;90683.22;;;3.30;100.00
6395;BME280;3230;42.588;23.358;2023-12-07T05:58:56;90687.56;;;3.24;100.00
6395;BME280;3230;42.588;23.358;2023-12-07T06:01:22;90691.47;;;3.44;100.00
6395;BME280;3230;42.588;23.358;2023-12-07T06:03:47;90686.28;;;3.44;100.00
6395;BME280;3230;42.588;23.358;2023-12-07T06:06:13;90693.34;;;3.48;100.00
6395;BME280;3230;42.588;23.358;2023-12-07T06:08:38;90697.72;;;3.48;100.00
6395;BME280;3230;42.588;23.358;2023-12-07T06:11:04;90697.03;;;3.35;100.00
6395;BME280;3230;42.588;23.358;2023-12-07T06:13:30;90702.16;;;3.30;100.00
6395;BME280;3230;42.588;23.358;2023-12-07T06:15:56;90698.22;;;3.45;100.00
6395;BME280;3230;42.588;23.358;2023-12-07T06:18:21;90700.16;;;3.55;100.00
6395;BME280;3230;42.588;23.358;2023-12-07T06:20:47;90702.25;;;3.58;100.00
6395;BME280;3230;42.588;23.358;2023-12-07T06:23:12;90706.06;;;3.50;100.00
6395;BME280;3230;42.588;23.358;2023-12-07T06:25:39;90706.75;;;3.45;100.00
6395;BME280;3230;42.588;23.358;2023-12-07T06:28:04;90708.56;;;3.62;100.00
6395;BME280;3230;42.588;23.358;2023-12-07T06:30:30;90712.41;;;3.42;100.00
6395;BME280;3230;42.588;23.358;2023-12-07T06:32:55;90709.13;;;3.30;100.00
6395;BME280;3230;42.588;23.358;2023-12-07T06:35:21;90710.31;;;3.39;100.00
6395;BME280;3230;42.588;23.358;2023-12-07T06:37:46;90710.00;;;3.18;100.00
6395;BME280;3230;42.588;23.358;2023-12-07T06:40:12;90716.81;;;3.25;100.00
6395;BME280;3230;42.588;23.358;2023-12-07T06:42:37;90722.69;;;3.54;100.00
6395;BME280;3230;42.588;23.358;2023-12-07T06:45:03;90723.94;;;3.51;100.00
6395;BME280;3230;42.588;23.358;2023-12-07T06:47:29;90732.09;;;3.43;100.00
6395;BME280;3230;42.588;23.358;2023-12-07T06:49:55;90721.75;;;3.26;100.00
6395;BME280;3230;42.588;23.358;2023-12-07T06:52:23;90720.97;;;3.43;100.00
6395;BME280;3230;42.588;23.358;2023-12-07T06:54:49;90711.53;;;3.54;100.00
6395;BME280;3230;42.588;23.358;2023-12-07T06:57:14;90718.91;;;3.62;100.00
6395;BME280;3230;42.588;23.358;2023-12-07T06:59:40;90724.66;;;3.47;100.00
6395;BME280;3230;42.588;23.358;2023-12-07T07:02:06;90728.72;;;3.60;100.00
6395;BME280;3230;42.588;23.358;2023-12-07T07:04:31;90724.56;;;3.59;100.00
6395;BME280;3230;42.588;23.358;2023-12-07T07:06:57;90732.34;;;3.59;100.00
6395;BME280;3230;42.588;23.358;2023-12-07T07:09:22;90732.78;;;3.73;100.00
6395;BME280;3230;42.588;23.358;2023-12-07T07:11:48;90729.06;;;3.46;100.00
6395;BME280;3230;42.588;23.358;2023-12-07T07:14:14;90734.28;;;3.68;100.00
6395;BME280;3230;42.588;23.358;2023-12-07T07:16:39;90732.66;;;3.84;100.00
6395;BME280;3230;42.588;23.358;2023-12-07T07:19:05;90745.78;;;3.95;100.00
6395;BME280;3230;42.588;23.358;2023-12-07T07:21:30;90740.75;;;4.10;100.00
6395;BME280;3230;42.588;23.358;2023-12-07T07:23:56;90739.06;;;4.21;100.00
6395;BME280;3230;42.588;23.358;2023-12-07T07:26:22;90736.66;;;4.37;100.00
6395;BME280;3230;42.588;23.358;2023-12-07T07:28:47;90734.19;;;4.47;100.00
6395;BME280;3230;42.588;23.358;2023-12-07T07:31:13;90730.31;;;4.50;100.00
6395;BME280;3230;42.588;23.358;2023-12-07T07:33:38;90734.03;;;4.59;100.00
6395;BME280;3230;42.588;23.358;2023-12-07T07:36:04;90735.84;;;4.58;100.00
6395;BME280;3230;42.588;23.358;2023-12-07T07:38:29;90730.06;;;4.51;100.00
6395;BME280;3230;42.588;23.358;2023-12-07T07:40:54;90729.22;;;4.45;100.00
6395;BME280;3230;42.588;23.358;2023-12-07T07:43:20;90727.84;;;4.38;100.00
6395;BME280;3230;42.588;23.358;2023-12-07T07:45:46;90733.75;;;4.33;100.00
6395;BME280;3230;42.588;23.358;2023-12-07T07:48:11;90732.38;;;4.47;100.00
6395;BME280;3230;42.588;23.358;2023-12-07T07:50:37;90732.25;;;4.59;100.00
6395;BME280;3230;42.588;23.358;2023-12-07T07:53:03;90733.91;;;4.71;100.00
6395;BME280;3230;42.588;23.358;2023-12-07T07:55:29;90740.16;;;4.75;100.00
6395;BME280;3230;42.588;23.358;2023-12-07T07:57:55;90737.25;;;4.71;100.00
6395;BME280;3230;42.588;23.358;2023-12-07T08:00:20;90734.19;;;4.74;100.00
6395;BME280;3230;42.588;23.358;2023-12-07T08:02:46;90736.34;;;4.83;100.00
6395;BME280;3230;42.588;23.358;2023-12-07T08:05:11;90738.72;;;4.89;100.00
6395;BME280;3230;42.588;23.358;2023-12-07T08:07:39;90736.47;;;4.98;100.00
6395;BME280;3230;42.588;23.358;2023-12-07T08:10:06;90736.94;;;4.90;100.00
6395;BME280;3230;42.588;23.358;2023-12-07T08:12:31;90744.41;;;4.81;100.00
6395;BME280;3230;42.588;23.358;2023-12-07T08:14:56;90747.03;;;4.86;100.00
6395;BME280;3230;42.588;23.358;2023-12-07T08:17:22;90749.13;;;4.89;100.00
6395;BME280;3230;42.588;23.358;2023-12-07T08:19:47;90745.63;;;4.78;100.00
6395;BME280;3230;42.588;23.358;2023-12-07T08:22:13;90745.72;;;4.84;100.00
6395;BME280;3230;42.588;23.358;2023-12-07T08:24:39;90755.44;;;4.71;100.00
6395;BME280;3230;42.588;23.358;2023-12-07T08:27:05;90752.75;;;4.61;100.00
6395;BME280;3230;42.588;23.358;2023-12-07T08:29:30;90756.06;;;4.56;100.00
6395;BME280;3230;42.588;23.358;2023-12-07T08:31:55;90759.09;;;4.48;100.00
6395;BME280;3230;42.588;23.358;2023-12-07T08:34:21;90755.66;;;4.42;100.00
6395;BME280;3230;42.588;23.358;2023-12-07T08:36:46;90758.44;;;4.36;100.00
6395;BME280;3230;42.588;23.358;2023-12-07T08:39:11;90757.75;;;4.45;100.00
6395;BME280;3230;42.588;23.358;2023-12-07T08:41:37;90761.69;;;4.48;100.00
6395;BME280;3230;42.588;23.358;2023-12-07T08:44:03;90767.38;;;4.45;100.00
6395;BME280;3230;42.588;23.358;2023-12-07T08:46:28;90763.38;;;4.59;100.00
6395;BME280;3230;42.588;23.358;2023-12-07T08:48:54;90755.25;;;4.51;100.00
6395;BME280;3230;42.588;23.358;2023-12-07T08:51:21;90756.78;;;4.52;100.00
6395;BME280;3230;42.588;23.358;2023-12-07T08:53:46;90771.47;;;4.41;100.00
6395;BME280;3230;42.588;23.358;2023-12-07T08:56:12;90778.34;;;4.30;100.00
6395;BME280;3230;42.588;23.358;2023-12-07T08:58:38;90767.50;;;4.11;100.00
6395;BME280;3230;42.588;23.358;2023-12-07T09:01:04;90773.22;;;4.13;100.00
6395;BME280;3230;42.588;23.358;2023-12-07T09:03:30;90767.78;;;4.14;100.00
6395;BME280;3230;42.588;23.358;2023-12-07T09:05:57;90765.44;;;4.13;100.00
6395;BME280;3230;42.588;23.358;2023-12-07T09:08:23;90770.38;;;4.14;100.00
6395;BME280;3230;42.588;23.358;2023-12-07T09:10:48;90760.63;;;3.99;100.00
6395;BME280;3230;42.588;23.358;2023-12-07T09:13:16;90761.44;;;4.05;100.00
6395;BME280;3230;42.588;23.358;2023-12-07T09:15:42;90759.19;;;3.92;100.00
6395;BME280;3230;42.588;23.358;2023-12-07T09:18:07;90765.59;;;4.06;100.00
6395;BME280;3230;42.588;23.358;2023-12-07T09:20:33;90764.53;;;4.02;100.00
6395;BME280;3230;42.588;23.358;2023-12-07T09:22:58;90764.03;;;4.05;100.00
6395;BME280;3230;42.588;23.358;2023-12-07T09:25:24;90766.94;;;4.09;100.00
6395;BME280;3230;42.588;23.358;2023-12-07T09:27:53;90765.81;;;4.22;100.00
6395;BME280;3230;42.588;23.358;2023-12-07T09:30:18;90760.41;;;4.28;100.00
6395;BME280;3230;42.588;23.358;2023-12-07T09:32:44;90757.38;;;4.31;100.00
6395;BME280;3230;42.588;23.358;2023-12-07T09:35:09;90752.88;;;4.49;100.00
6395;BME280;3230;42.588;23.358;2023-12-07T09:37:53;90752.53;;;4.40;100.00
6395;BME280;3230;42.588;23.358;2023-12-07T09:40:21;90750.06;;;4.51;100.00
6395;BME280;3230;42.588;23.358;2023-12-07T09:42:47;90750.66;;;4.36;100.00
6395;BME280;3230;42.588;23.358;2023-12-07T09:45:13;90746.63;;;4.45;100.00
6395;BME280;3230;42.588;23.358;2023-12-07T09:47:42;90747.81;;;4.37;100.00
6395;BME280;3230;42.588;23.358;2023-12-07T09:50:08;90747.88;;;4.42;100.00
6395;BME280;3230;42.588;23.358;2023-12-07T09:52:34;90746.00;;;4.38;100.00
6395;BME280;3230;42.588;23.358;2023-12-07T09:55:02;90746.72;;;4.33;100.00
6395;BME280;3230;42.588;23.358;2023-12-07T09:57:27;90745.78;;;4.17;100.00
6395;BME280;3230;42.588;23.358;2023-12-07T09:59:52;90748.72;;;4.04;100.00
6395;BME280;3230;42.588;23.358;2023-12-07T10:02:18;90747.34;;;3.96;100.00
6395;BME280;3230;42.588;23.358;2023-12-07T10:04:43;90743.88;;;3.68;100.00
6395;BME280;3230;42.588;23.358;2023-12-07T10:07:09;90744.09;;;3.49;100.00
6395;BME280;3230;42.588;23.358;2023-12-07T10:09:38;90747.66;;;3.43;100.00
6395;BME280;3230;42.588;23.358;2023-12-07T10:12:05;90748.38;;;3.39;100.00
6395;BME280;3230;42.588;23.358;2023-12-07T10:14:31;90742.47;;;3.26;100.00
6395;BME280;3230;42.588;23.358;2023-12-07T10:16:56;90744.69;;;3.17;100.00
6395;BME280;3230;42.588;23.358;2023-12-07T10:19:22;90750.03;;;3.11;100.00
6395;BME280;3230;42.588;23.358;2023-12-07T10:21:49;90742.47;;;3.09;100.00
6395;BME280;3230;42.588;23.358;2023-12-07T10:24:22;90734.19;;;3.07;100.00
6395;BME280;3230;42.588;23.358;2023-12-07T10:26:49;90738.16;;;3.15;100.00
6395;BME280;3230;42.588;23.358;2023-12-07T10:29:17;90732.22;;;2.97;100.00
6395;BME280;3230;42.588;23.358;2023-12-07T10:31:43;90726.78;;;2.99;100.00
6395;BME280;3230;42.588;23.358;2023-12-07T10:34:09;90727.34;;;2.84;100.00
6395;BME280;3230;42.588;23.358;2023-12-07T10:36:34;90730.47;;;3.03;100.00
6395;BME280;3230;42.588;23.358;2023-12-07T10:38:59;90727.34;;;3.01;100.00
6395;BME280;3230;42.588;23.358;2023-12-07T10:41:25;90725.84;;;3.05;100.00
6395;BME280;3230;42.588;23.358;2023-12-07T10:43:59;90727.88;;;3.03;100.00
6395;BME280;3230;42.588;23.358;2023-12-07T10:46:25;90730.66;;;2.96;100.00
6395;BME280;3230;42.588;23.358;2023-12-07T10:48:59;90721.94;;;2.85;100.00
6395;BME280;3230;42.588;23.358;2023-12-07T10:51:31;90720.66;;;2.88;100.00
6395;BME280;3230;42.588;23.358;2023-12-07T10:54:02;90721.63;;;2.99;100.00
6395;BME280;3230;42.588;23.358;2023-12-07T10:56:29;90721.56;;;3.11;100.00
6395;BME280;3230;42.588;23.358;2023-12-07T10:58:57;90714.41;;;3.18;100.00
6395;BME280;3230;42.588;23.358;2023-12-07T11:01:24;90714.63;;;3.16;100.00
6395;BME280;3230;42.588;23.358;2023-12-07T11:03:51;90719.47;;;3.30;100.00
6395;BME280;3230;42.588;23.358;2023-12-07T11:06:18;90716.13;;;3.29;100.00
6395;BME280;3230;42.588;23.358;2023-12-07T11:08:54;90717.13;;;3.45;100.00
6395;BME280;3230;42.588;23.358;2023-12-07T11:11:46;90717.84;;;3.07;100.00
6395;BME280;3230;42.588;23.358;2023-12-07T11:14:15;90715.25;;;2.90;100.00
6395;BME280;3230;42.588;23.358;2023-12-07T11:16:43;90717.53;;;3.03;100.00
6395;BME280;3230;42.588;23.358;2023-12-07T11:22:06;90725.09;;;3.04;100.00
6395;BME280;3230;42.588;23.358;2023-12-07T11:24:32;90726.72;;;2.94;100.00
6395;BME280;3230;42.588;23.358;2023-12-07T11:26:58;90719.56;;;2.84;100.00
6395;BME280;3230;42.588;23.358;2023-12-07T11:29:24;90725.84;;;2.88;100.00
6395;BME280;3230;42.588;23.358;2023-12-07T11:31:50;90715.78;;;2.75;100.00
6395;BME280;3230;42.588;23.358;2023-12-07T11:34:54;90714.84;;;2.64;100.00
6395;BME280;3230;42.588;23.358;2023-12-07T11:38:03;90713.56;;;2.49;100.00
6395;BME280;3230;42.588;23.358;2023-12-07T11:40:34;90711.84;;;2.55;100.00
6395;BME280;3230;42.588;23.358;2023-12-07T11:43:00;90707.00;;;2.59;100.00
6395;BME280;3230;42.588;23.358;2023-12-07T11:48:09;90702.28;;;2.55;100.00
6395;BME280;3230;42.588;23.358;2023-12-07T11:50:34;90696.94;;;2.45;100.00
6395;BME280;3230;42.588;23.358;2023-12-07T11:53:00;90704.78;;;2.50;100.00
6395;BME280;3230;42.588;23.358;2023-12-07T11:55:25;90698.31;;;2.36;100.00
6395;BME280;3230;42.588;23.358;2023-12-07T11:57:50;90700.34;;;2.34;100.00
6395;BME280;3230;42.588;23.358;2023-12-07T12:00:17;90700.13;;;2.35;100.00
6395;BME280;3230;42.588;23.358;2023-12-07T12:02:42;90698.81;;;2.33;100.00
6395;BME280;3230;42.588;23.358;2023-12-07T12:05:09;90703.97;;;2.33;100.00
6395;BME280;3230;42.588;23.358;2023-12-07T12:07:35;90703.31;;;2.26;100.00
6395;BME280;3230;42.588;23.358;2023-12-07T12:10:02;90696.69;;;2.18;100.00
6395;BME280;3230;42.588;23.358;2023-12-07T12:12:34;90693.44;;;2.22;100.00
6395;BME280;3230;42.588;23.358;2023-12-07T12:14:59;90699.28;;;2.18;100.00
6395;BME280;3230;42.588;23.358;2023-12-07T12:17:25;90695.41;;;2.03;100.00
6395;BME280;3230;42.588;23.358;2023-12-07T12:19:50;90688.53;;;2.09;100.00
6395;BME280;3230;42.588;23.358;2023-12-07T12:22:19;90691.13;;;2.09;100.00
6395;BME280;3230;42.588;23.358;2023-12-07T12:24:46;90693.25;;;2.12;100.00
6395;BME280;3230;42.588;23.358;2023-12-07T12:27:13;90697.69;;;2.00;100.00
6395;BME280;3230;42.588;23.358;2023-12-07T12:29:38;90694.63;;;2.03;100.00
6395;BME280;3230;42.588;23.358;2023-12-07T12:32:05;90689.09;;;2.11;100.00
6395;BME280;3230;42.588;23.358;2023-12-07T12:34:34;90693.69;;;2.09;100.00
6395;BME280;3230;42.588;23.358;2023-12-07T12:36:59;90691.59;;;2.06;100.00
6395;BME280;3230;42.588;23.358;2023-12-07T12:39:29;90689.66;;;2.13;100.00
6395;BME280;3230;42.588;23.358;2023-12-07T12:41:57;90697.31;;;2.08;100.00
6395;BME280;3230;42.588;23.358;2023-12-07T12:44:24;90686.31;;;2.01;100.00
6395;BME280;3230;42.588;23.358;2023-12-07T12:46:50;90699.69;;;2.10;100.00
6395;BME280;3230;42.588;23.358;2023-12-07T12:49:15;90694.72;;;2.08;100.00
6395;BME280;3230;42.588;23.358;2023-12-07T12:51:44;90703.78;;;2.22;100.00
6395;BME280;3230;42.588;23.358;2023-12-07T12:54:09;90704.25;;;2.19;100.00
6395;BME280;3230;42.588;23.358;2023-12-07T12:56:36;90704.53;;;2.06;100.00
6395;BME280;3230;42.588;23.358;2023-12-07T12:59:02;90707.53;;;2.03;100.00
6395;BME280;3230;42.588;23.358;2023-12-07T13:01:27;90705.88;;;1.97;100.00
6395;BME280;3230;42.588;23.358;2023-12-07T13:03:52;90707.13;;;1.94;100.00
6395;BME280;3230;42.588;23.358;2023-12-07T13:06:18;90705.78;;;1.91;100.00
6395;BME280;3230;42.588;23.358;2023-12-07T13:08:44;90704.78;;;1.92;100.00
6395;BME280;3230;42.588;23.358;2023-12-07T13:11:14;90705.03;;;1.79;100.00
6395;BME280;3230;42.588;23.358;2023-12-07T13:13:40;90704.91;;;1.74;100.00
6395;BME280;3230;42.588;23.358;2023-12-07T13:16:06;90716.25;;;1.73;100.00
6395;BME280;3230;42.588;23.358;2023-12-07T13:18:31;90716.41;;;1.66;100.00
6395;BME280;3230;42.588;23.358;2023-12-07T13:20:57;90719.09;;;1.59;100.00
6395;BME280;3230;42.588;23.358;2023-12-07T13:23:22;90720.13;;;1.58;100.00
6395;BME280;3230;42.588;23.358;2023-12-07T13:25:48;90717.88;;;1.50;100.00
6395;BME280;3230;42.588;23.358;2023-12-07T13:28:13;90728.78;;;1.52;100.00
6395;BME280;3230;42.588;23.358;2023-12-07T13:30:39;90724.28;;;1.36;100.00
6395;BME280;3230;42.588;23.358;2023-12-07T13:33:04;90716.88;;;1.27;100.00